Home PIREPS Pireps

Flight SAB4060

  • Submitted By: Ahmed GUEZATI
  • Departure Airport: airport Zurich (LSZH)
  • Arrival Airport: Bruxelles National (EBBR)
  • Aircraft: B737-500 (OO-SAB)
  • Flight Time: 01.29
  • Date Submitted: 22/01/2017
  • Status: Accepted
Flight Details
Gross Revenue:
(117 load / € 0.00 per unit
€ 0.00
Fuel Cost:
(3647 fuel used @ 5.1 / unit)
€ 18,599.70

Additional Log Information:

View Log

Aircraft Used in flight is Boeing 737-800NGX PMDG House
23:26 Brakes are On
23:26 Recovered from Stall
23:26 Recovered from Overspeed
23:44 Brakes are Released
23:52 Brakes are On
23:53 Brakes are Released
23:55 You Took off @ 154 Knots and Flaps at Position 4
Departure Weather
LSZH 222220Z VRB01KT 4100 BR FEW004 OVC006 M06/M07 Q1024 NOSIGrn
23:55 Landing Gear Up @ 184 Knots and 1530 Feet
23:56 Below FL100 you need to turn on the landing lights
23:57 Below 10000 feet you are not allowed to go over 250 knots
23:58 Overspeed
23:58 Recovered from Overspeed
00:06 Above FL100 you need to switch of the landing lights
00:06 Above FL100 you need to switch of the landing lights
00:36 Above FL100 you need to switch of the landing lights
00:48 Landing Gear Down @ 297 Knots and 1540 Feet
00:48 Landing Gear Up @ 297 Knots and 1550 Feet
00:48 Landing Gear Down @ 296 Knots and 1550 Feet
00:51 You Landed @ 117 Knots and with -1450 Vertical Speed
Arrival Weather
EBBR 222320Z 28002KT 4000 BR FEW009 BKN015 M02/M04 Q1028 NOSIGrn
00:51 Your Landing was very hard
00:55 Brakes are On
00:55 Brussels Bel-Track1.0.1.2

Comments

Commenter Comment
Ahmed GUEZATI Ras .... Thinks for all ....

Route Map

Corporate About Us Our Team Vacancies Information Fleet Route Network Rules and Regulations Operations Flight Schedules Event Center Tours Partners IVAO Vatsim Acars dev FSCB

fb Users Online Belgium Michael Bitu,
2 Pilot(s) and 99 Guest(s) Online
CMS by phpVMS - Design by Crazycreatives.com - Copyright © 2018 - Brussels Airlines Virtual